sensor_id;sensor_type;location;lat;lon;timestamp;P1;durP1;ratioP1;P2;durP2;ratioP2
67819;SDS011;54618;52.018;5.576;2022-07-29T00:01:41;1.75;;;0.90;;
67819;SDS011;54618;52.018;5.576;2022-07-29T00:04:08;1.35;;;0.93;;
67819;SDS011;54618;52.018;5.576;2022-07-29T00:06:33;2.35;;;1.02;;
67819;SDS011;54618;52.018;5.576;2022-07-29T00:08:59;3.47;;;1.00;;
67819;SDS011;54618;52.018;5.576;2022-07-29T00:11:25;1.55;;;0.90;;
67819;SDS011;54618;52.018;5.576;2022-07-29T00:13:50;1.65;;;1.00;;
67819;SDS011;54618;52.018;5.576;2022-07-29T00:16:16;3.92;;;1.20;;
67819;SDS011;54618;52.018;5.576;2022-07-29T00:18:41;2.17;;;1.15;;
67819;SDS011;54618;52.018;5.576;2022-07-29T00:21:07;3.88;;;1.08;;
67819;SDS011;54618;52.018;5.576;2022-07-29T00:23:32;2.50;;;1.20;;
67819;SDS011;54618;52.018;5.576;2022-07-29T00:25:58;3.63;;;1.10;;
67819;SDS011;54618;52.018;5.576;2022-07-29T00:28:24;1.83;;;0.90;;
67819;SDS011;54618;52.018;5.576;2022-07-29T00:30:49;2.72;;;1.05;;
67819;SDS011;54618;52.018;5.576;2022-07-29T00:33:15;1.88;;;1.13;;
67819;SDS011;54618;52.018;5.576;2022-07-29T00:35:40;1.77;;;1.08;;
67819;SDS011;54618;52.018;5.576;2022-07-29T00:38:09;1.92;;;1.02;;
67819;SDS011;54618;52.018;5.576;2022-07-29T00:40:36;1.75;;;0.90;;
67819;SDS011;54618;52.018;5.576;2022-07-29T00:43:02;2.22;;;1.02;;
67819;SDS011;54618;52.018;5.576;2022-07-29T00:45:27;2.17;;;1.00;;
67819;SDS011;54618;52.018;5.576;2022-07-29T00:47:54;2.10;;;1.05;;
67819;SDS011;54618;52.018;5.576;2022-07-29T00:50:20;2.85;;;1.00;;
67819;SDS011;54618;52.018;5.576;2022-07-29T00:52:46;1.98;;;1.10;;
67819;SDS011;54618;52.018;5.576;2022-07-29T00:55:12;2.03;;;1.00;;
67819;SDS011;54618;52.018;5.576;2022-07-29T00:57:40;1.58;;;0.82;;
67819;SDS011;54618;52.018;5.576;2022-07-29T01:00:08;1.73;;;0.90;;
67819;SDS011;54618;52.018;5.576;2022-07-29T01:02:35;2.35;;;1.00;;
67819;SDS011;54618;52.018;5.576;2022-07-29T01:05:02;2.00;;;0.90;;
67819;SDS011;54618;52.018;5.576;2022-07-29T01:07:29;2.30;;;1.10;;
67819;SDS011;54618;52.018;5.576;2022-07-29T01:09:56;3.15;;;1.00;;
67819;SDS011;54618;52.018;5.576;2022-07-29T01:12:24;2.30;;;1.02;;
67819;SDS011;54618;52.018;5.576;2022-07-29T01:14:51;2.15;;;1.20;;
67819;SDS011;54618;52.018;5.576;2022-07-29T01:31:54;2.42;;;1.00;;
67819;SDS011;54618;52.018;5.576;2022-07-29T01:34:50;2.45;;;1.00;;
67819;SDS011;54618;52.018;5.576;2022-07-29T01:37:26;1.73;;;0.85;;
67819;SDS011;54618;52.018;5.576;2022-07-29T01:39:57;1.58;;;1.00;;
67819;SDS011;54618;52.018;5.576;2022-07-29T01:42:29;1.63;;;0.95;;
67819;SDS011;54618;52.018;5.576;2022-07-29T01:45:20;1.85;;;0.90;;
67819;SDS011;54618;52.018;5.576;2022-07-29T01:47:56;2.00;;;0.90;;
67819;SDS011;54618;52.018;5.576;2022-07-29T01:50:30;2.03;;;0.93;;
67819;SDS011;54618;52.018;5.576;2022-07-29T01:53:02;2.90;;;1.05;;
67819;SDS011;54618;52.018;5.576;2022-07-29T01:55:32;1.95;;;0.90;;
67819;SDS011;54618;52.018;5.576;2022-07-29T01:58:03;2.55;;;1.00;;
67819;SDS011;54618;52.018;5.576;2022-07-29T02:00:31;1.70;;;1.02;;
67819;SDS011;54618;52.018;5.576;2022-07-29T02:02:58;2.47;;;1.20;;
67819;SDS011;54618;52.018;5.576;2022-07-29T02:05:27;1.80;;;0.90;;
67819;SDS011;54618;52.018;5.576;2022-07-29T02:07:55;1.35;;;1.00;;
67819;SDS011;54618;52.018;5.576;2022-07-29T02:10:24;3.22;;;1.10;;
67819;SDS011;54618;52.018;5.576;2022-07-29T02:12:54;3.55;;;1.20;;
67819;SDS011;54618;52.018;5.576;2022-07-29T02:15:21;1.25;;;1.00;;
67819;SDS011;54618;52.018;5.576;2022-07-29T02:17:50;2.17;;;1.10;;
67819;SDS011;54618;52.018;5.576;2022-07-29T02:20:20;2.47;;;0.93;;
67819;SDS011;54618;52.018;5.576;2022-07-29T02:22:49;2.58;;;1.20;;
67819;SDS011;54618;52.018;5.576;2022-07-29T02:25:15;2.00;;;0.95;;
67819;SDS011;54618;52.018;5.576;2022-07-29T02:27:42;2.10;;;1.10;;
67819;SDS011;54618;52.018;5.576;2022-07-29T02:30:09;2.05;;;1.00;;
67819;SDS011;54618;52.018;5.576;2022-07-29T02:32:37;3.03;;;1.15;;
67819;SDS011;54618;52.018;5.576;2022-07-29T02:35:04;2.17;;;1.10;;
67819;SDS011;54618;52.018;5.576;2022-07-29T02:37:31;2.83;;;1.00;;
67819;SDS011;54618;52.018;5.576;2022-07-29T02:39:57;2.28;;;1.05;;
67819;SDS011;54618;52.018;5.576;2022-07-29T02:42:24;1.77;;;1.00;;
67819;SDS011;54618;52.018;5.576;2022-07-29T02:44:52;2.90;;;0.98;;
67819;SDS011;54618;52.018;5.576;2022-07-29T02:50:06;2.33;;;1.00;;
67819;SDS011;54618;52.018;5.576;2022-07-29T02:52:38;2.25;;;0.90;;
67819;SDS011;54618;52.018;5.576;2022-07-29T02:55:27;1.70;;;1.00;;
67819;SDS011;54618;52.018;5.576;2022-07-29T03:00:28;2.05;;;1.08;;
67819;SDS011;54618;52.018;5.576;2022-07-29T03:02:58;3.10;;;1.30;;
67819;SDS011;54618;52.018;5.576;2022-07-29T03:05:26;1.95;;;1.00;;
67819;SDS011;54618;52.018;5.576;2022-07-29T03:08:00;1.85;;;1.00;;
67819;SDS011;54618;52.018;5.576;2022-07-29T03:10:28;1.83;;;1.00;;
67819;SDS011;54618;52.018;5.576;2022-07-29T03:12:55;2.40;;;0.98;;
67819;SDS011;54618;52.018;5.576;2022-07-29T03:15:22;2.05;;;0.93;;
67819;SDS011;54618;52.018;5.576;2022-07-29T03:17:49;1.63;;;0.85;;
67819;SDS011;54618;52.018;5.576;2022-07-29T03:20:16;1.88;;;0.95;;
67819;SDS011;54618;52.018;5.576;2022-07-29T03:22:43;2.00;;;1.20;;
67819;SDS011;54618;52.018;5.576;2022-07-29T03:25:12;2.42;;;1.15;;
67819;SDS011;54618;52.018;5.576;2022-07-29T03:27:39;3.75;;;1.15;;
67819;SDS011;54618;52.018;5.576;2022-07-29T03:30:06;2.25;;;1.10;;
67819;SDS011;54618;52.018;5.576;2022-07-29T03:32:33;1.83;;;1.10;;
67819;SDS011;54618;52.018;5.576;2022-07-29T03:34:58;2.00;;;0.82;;
67819;SDS011;54618;52.018;5.576;2022-07-29T03:37:24;1.30;;;0.90;;
67819;SDS011;54618;52.018;5.576;2022-07-29T03:39:50;2.20;;;1.00;;
67819;SDS011;54618;52.018;5.576;2022-07-29T03:42:16;1.80;;;1.10;;
67819;SDS011;54618;52.018;5.576;2022-07-29T03:44:46;2.17;;;1.00;;
67819;SDS011;54618;52.018;5.576;2022-07-29T03:47:13;2.47;;;1.13;;
67819;SDS011;54618;52.018;5.576;2022-07-29T03:49:41;1.83;;;1.08;;
67819;SDS011;54618;52.018;5.576;2022-07-29T03:52:09;2.00;;;1.00;;
67819;SDS011;54618;52.018;5.576;2022-07-29T03:54:35;1.67;;;1.00;;
67819;SDS011;54618;52.018;5.576;2022-07-29T03:57:01;2.53;;;1.00;;
67819;SDS011;54618;52.018;5.576;2022-07-29T03:59:27;2.15;;;1.10;;
67819;SDS011;54618;52.018;5.576;2022-07-29T04:01:53;3.33;;;1.02;;
67819;SDS011;54618;52.018;5.576;2022-07-29T04:04:21;3.65;;;1.02;;
67819;SDS011;54618;52.018;5.576;2022-07-29T04:06:46;2.20;;;1.20;;
67819;SDS011;54618;52.018;5.576;2022-07-29T04:09:12;1.30;;;0.93;;
67819;SDS011;54618;52.018;5.576;2022-07-29T04:11:38;2.90;;;0.95;;
67819;SDS011;54618;52.018;5.576;2022-07-29T04:14:05;2.13;;;0.90;;
67819;SDS011;54618;52.018;5.576;2022-07-29T04:16:30;2.13;;;1.00;;
67819;SDS011;54618;52.018;5.576;2022-07-29T04:18:56;2.78;;;1.00;;
67819;SDS011;54618;52.018;5.576;2022-07-29T04:21:22;1.90;;;1.05;;
67819;SDS011;54618;52.018;5.576;2022-07-29T04:23:47;2.60;;;1.17;;
67819;SDS011;54618;52.018;5.576;2022-07-29T04:26:15;1.70;;;1.10;;
67819;SDS011;54618;52.018;5.576;2022-07-29T04:28:44;2.40;;;1.20;;
67819;SDS011;54618;52.018;5.576;2022-07-29T04:31:10;1.75;;;1.00;;
67819;SDS011;54618;52.018;5.576;2022-07-29T04:33:37;1.70;;;1.00;;
67819;SDS011;54618;52.018;5.576;2022-07-29T04:36:03;2.17;;;1.10;;
67819;SDS011;54618;52.018;5.576;2022-07-29T04:38:29;2.67;;;1.20;;
67819;SDS011;54618;52.018;5.576;2022-07-29T04:40:55;1.90;;;1.02;;
67819;SDS011;54618;52.018;5.576;2022-07-29T04:43:20;3.85;;;1.20;;
67819;SDS011;54618;52.018;5.576;2022-07-29T04:45:46;3.78;;;1.40;;
67819;SDS011;54618;52.018;5.576;2022-07-29T04:48:11;2.55;;;1.20;;
67819;SDS011;54618;52.018;5.576;2022-07-29T04:50:37;1.80;;;0.95;;
67819;SDS011;54618;52.018;5.576;2022-07-29T04:53:04;2.33;;;1.10;;
67819;SDS011;54618;52.018;5.576;2022-07-29T04:55:30;2.78;;;1.15;;
67819;SDS011;54618;52.018;5.576;2022-07-29T04:57:56;2.03;;;0.90;;
67819;SDS011;54618;52.018;5.576;2022-07-29T05:00:22;2.80;;;1.20;;
67819;SDS011;54618;52.018;5.576;2022-07-29T05:02:48;1.80;;;1.00;;
67819;SDS011;54618;52.018;5.576;2022-07-29T05:05:14;1.80;;;1.10;;
67819;SDS011;54618;52.018;5.576;2022-07-29T05:07:39;2.78;;;1.25;;
67819;SDS011;54618;52.018;5.576;2022-07-29T05:10:05;3.28;;;1.10;;
67819;SDS011;54618;52.018;5.576;2022-07-29T05:12:31;1.67;;;1.17;;
67819;SDS011;54618;52.018;5.576;2022-07-29T05:14:56;3.08;;;1.20;;
67819;SDS011;54618;52.018;5.576;2022-07-29T05:17:22;2.45;;;1.20;;
67819;SDS011;54618;52.018;5.576;2022-07-29T05:19:47;2.95;;;1.30;;
67819;SDS011;54618;52.018;5.576;2022-07-29T05:22:13;2.78;;;1.10;;
67819;SDS011;54618;52.018;5.576;2022-07-29T05:24:38;2.25;;;1.20;;
67819;SDS011;54618;52.018;5.576;2022-07-29T05:27:04;2.33;;;1.23;;
67819;SDS011;54618;52.018;5.576;2022-07-29T05:29:29;2.22;;;1.20;;
67819;SDS011;54618;52.018;5.576;2022-07-29T05:31:56;3.08;;;1.20;;
67819;SDS011;54618;52.018;5.576;2022-07-29T05:34:21;3.10;;;1.20;;
67819;SDS011;54618;52.018;5.576;2022-07-29T05:36:47;1.10;;;0.90;;
67819;SDS011;54618;52.018;5.576;2022-07-29T05:39:12;2.25;;;0.90;;
67819;SDS011;54618;52.018;5.576;2022-07-29T05:41:38;1.67;;;1.00;;
67819;SDS011;54618;52.018;5.576;2022-07-29T05:44:04;2.45;;;1.00;;
67819;SDS011;54618;52.018;5.576;2022-07-29T05:46:29;2.63;;;1.10;;
67819;SDS011;54618;52.018;5.576;2022-07-29T05:48:56;2.00;;;1.20;;
67819;SDS011;54618;52.018;5.576;2022-07-29T05:51:21;2.30;;;1.10;;
67819;SDS011;54618;52.018;5.576;2022-07-29T05:53:47;2.28;;;1.20;;
67819;SDS011;54618;52.018;5.576;2022-07-29T05:56:12;2.00;;;1.10;;
67819;SDS011;54618;52.018;5.576;2022-07-29T05:58:38;2.05;;;1.20;;
67819;SDS011;54618;52.018;5.576;2022-07-29T06:01:04;1.80;;;1.00;;
67819;SDS011;54618;52.018;5.576;2022-07-29T06:03:29;1.90;;;1.08;;
67819;SDS011;54618;52.018;5.576;2022-07-29T06:05:55;3.05;;;1.20;;
67819;SDS011;54618;52.018;5.576;2022-07-29T06:08:21;1.95;;;1.13;;
67819;SDS011;54618;52.018;5.576;2022-07-29T06:10:46;1.90;;;1.00;;
67819;SDS011;54618;52.018;5.576;2022-07-29T06:13:12;3.08;;;1.10;;
67819;SDS011;54618;52.018;5.576;2022-07-29T06:15:40;2.33;;;1.20;;
67819;SDS011;54618;52.018;5.576;2022-07-29T06:18:06;2.83;;;1.20;;
67819;SDS011;54618;52.018;5.576;2022-07-29T06:20:34;2.28;;;1.30;;
67819;SDS011;54618;52.018;5.576;2022-07-29T06:23:00;2.17;;;1.10;;
67819;SDS011;54618;52.018;5.576;2022-07-29T06:25:26;2.47;;;1.50;;
67819;SDS011;54618;52.018;5.576;2022-07-29T06:27:55;3.75;;;1.67;;
67819;SDS011;54618;52.018;5.576;2022-07-29T06:30:21;2.42;;;1.50;;
67819;SDS011;54618;52.018;5.576;2022-07-29T06:32:47;2.80;;;1.20;;
67819;SDS011;54618;52.018;5.576;2022-07-29T06:35:13;3.22;;;1.10;;
67819;SDS011;54618;52.018;5.576;2022-07-29T06:37:38;3.10;;;1.10;;
67819;SDS011;54618;52.018;5.576;2022-07-29T06:40:04;2.53;;;1.10;;
67819;SDS011;54618;52.018;5.576;2022-07-29T06:42:48;3.55;;;1.17;;
67819;SDS011;54618;52.018;5.576;2022-07-29T06:45:14;3.08;;;1.35;;
67819;SDS011;54618;52.018;5.576;2022-07-29T06:47:41;3.28;;;1.50;;
67819;SDS011;54618;52.018;5.576;2022-07-29T06:50:06;2.38;;;1.10;;
67819;SDS011;54618;52.018;5.576;2022-07-29T06:52:36;2.38;;;1.30;;
67819;SDS011;54618;52.018;5.576;2022-07-29T06:55:02;1.73;;;1.15;;
67819;SDS011;54618;52.018;5.576;2022-07-29T06:57:27;2.67;;;1.20;;
67819;SDS011;54618;52.018;5.576;2022-07-29T06:59:53;1.90;;;1.20;;
67819;SDS011;54618;52.018;5.576;2022-07-29T07:02:20;1.73;;;1.20;;
67819;SDS011;54618;52.018;5.576;2022-07-29T07:04:46;2.35;;;1.30;;
67819;SDS011;54618;52.018;5.576;2022-07-29T07:07:12;2.58;;;1.10;;
67819;SDS011;54618;52.018;5.576;2022-07-29T07:09:37;2.40;;;1.00;;
67819;SDS011;54618;52.018;5.576;2022-07-29T07:12:03;2.30;;;1.20;;
67819;SDS011;54618;52.018;5.576;2022-07-29T07:14:29;2.17;;;1.13;;
67819;SDS011;54618;52.018;5.576;2022-07-29T07:16:54;3.85;;;1.27;;
67819;SDS011;54618;52.018;5.576;2022-07-29T07:19:20;2.33;;;1.15;;
67819;SDS011;54618;52.018;5.576;2022-07-29T07:21:45;1.90;;;1.10;;
67819;SDS011;54618;52.018;5.576;2022-07-29T07:24:11;1.50;;;1.10;;
67819;SDS011;54618;52.018;5.576;2022-07-29T07:26:36;1.88;;;1.05;;
67819;SDS011;54618;52.018;5.576;2022-07-29T07:29:04;2.50;;;1.20;;
67819;SDS011;54618;52.018;5.576;2022-07-29T07:31:29;3.30;;;1.30;;
67819;SDS011;54618;52.018;5.576;2022-07-29T07:33:56;2.38;;;1.05;;
67819;SDS011;54618;52.018;5.576;2022-07-29T07:36:21;2.50;;;1.35;;
67819;SDS011;54618;52.018;5.576;2022-07-29T07:38:47;2.40;;;1.20;;
67819;SDS011;54618;52.018;5.576;2022-07-29T07:41:13;2.45;;;1.20;;
67819;SDS011;54618;52.018;5.576;2022-07-29T07:43:38;2.38;;;1.30;;
67819;SDS011;54618;52.018;5.576;2022-07-29T07:46:04;2.70;;;1.20;;
67819;SDS011;54618;52.018;5.576;2022-07-29T07:48:30;2.08;;;1.20;;
67819;SDS011;54618;52.018;5.576;2022-07-29T07:50:56;3.20;;;1.13;;
67819;SDS011;54618;52.018;5.576;2022-07-29T07:53:21;2.70;;;1.30;;
67819;SDS011;54618;52.018;5.576;2022-07-29T07:55:47;2.42;;;1.30;;
67819;SDS011;54618;52.018;5.576;2022-07-29T07:58:12;3.08;;;1.40;;
67819;SDS011;54618;52.018;5.576;2022-07-29T08:00:38;5.75;;;1.38;;
67819;SDS011;54618;52.018;5.576;2022-07-29T08:03:03;3.38;;;1.42;;
67819;SDS011;54618;52.018;5.576;2022-07-29T08:05:29;3.55;;;1.50;;
67819;SDS011;54618;52.018;5.576;2022-07-29T08:07:57;3.30;;;1.55;;
67819;SDS011;54618;52.018;5.576;2022-07-29T08:10:22;2.83;;;1.20;;
67819;SDS011;54618;52.018;5.576;2022-07-29T08:13:07;2.10;;;1.20;;
67819;SDS011;54618;52.018;5.576;2022-07-29T08:15:34;3.45;;;1.27;;
67819;SDS011;54618;52.018;5.576;2022-07-29T08:18:00;2.63;;;1.35;;
67819;SDS011;54618;52.018;5.576;2022-07-29T08:20:26;2.08;;;1.10;;
67819;SDS011;54618;52.018;5.576;2022-07-29T08:22:52;2.95;;;1.42;;
67819;SDS011;54618;52.018;5.576;2022-07-29T08:25:18;3.97;;;1.45;;
67819;SDS011;54618;52.018;5.576;2022-07-29T08:27:46;2.35;;;1.20;;
67819;SDS011;54618;52.018;5.576;2022-07-29T08:30:11;2.60;;;1.60;;
67819;SDS011;54618;52.018;5.576;2022-07-29T08:32:37;2.63;;;1.70;;
67819;SDS011;54618;52.018;5.576;2022-07-29T08:35:03;3.72;;;1.70;;
67819;SDS011;54618;52.018;5.576;2022-07-29T08:37:28;4.32;;;1.67;;
67819;SDS011;54618;52.018;5.576;2022-07-29T08:39:54;6.78;;;1.92;;
67819;SDS011;54618;52.018;5.576;2022-07-29T08:42:19;2.72;;;1.67;;
67819;SDS011;54618;52.018;5.576;2022-07-29T08:44:45;3.72;;;1.60;;
67819;SDS011;54618;52.018;5.576;2022-07-29T08:47:13;3.63;;;1.80;;
67819;SDS011;54618;52.018;5.576;2022-07-29T08:49:39;2.58;;;1.55;;
67819;SDS011;54618;52.018;5.576;2022-07-29T08:52:05;2.75;;;1.58;;
67819;SDS011;54618;52.018;5.576;2022-07-29T08:54:31;3.50;;;1.80;;
67819;SDS011;54618;52.018;5.576;2022-07-29T08:56:57;4.22;;;1.90;;
67819;SDS011;54618;52.018;5.576;2022-07-29T08:59:25;2.92;;;1.60;;
67819;SDS011;54618;52.018;5.576;2022-07-29T09:01:53;3.35;;;1.67;;
67819;SDS011;54618;52.018;5.576;2022-07-29T09:04:19;4.63;;;1.60;;
67819;SDS011;54618;52.018;5.576;2022-07-29T09:06:46;4.70;;;2.20;;
67819;SDS011;54618;52.018;5.576;2022-07-29T09:09:14;5.35;;;2.00;;
67819;SDS011;54618;52.018;5.576;2022-07-29T09:11:40;3.25;;;1.70;;
67819;SDS011;54618;52.018;5.576;2022-07-29T09:14:06;3.55;;;1.80;;
67819;SDS011;54618;52.018;5.576;2022-07-29T09:16:43;3.20;;;2.13;;
67819;SDS011;54618;52.018;5.576;2022-07-29T09:19:24;6.30;;;1.85;;
67819;SDS011;54618;52.018;5.576;2022-07-29T09:21:51;2.97;;;1.60;;
67819;SDS011;54618;52.018;5.576;2022-07-29T09:24:24;3.35;;;1.70;;
67819;SDS011;54618;52.018;5.576;2022-07-29T09:27:29;2.80;;;1.63;;
67819;SDS011;54618;52.018;5.576;2022-07-29T09:29:56;6.05;;;2.13;;
67819;SDS011;54618;52.018;5.576;2022-07-29T09:32:27;5.80;;;2.20;;
67819;SDS011;54618;52.018;5.576;2022-07-29T09:37:44;3.95;;;2.33;;
67819;SDS011;54618;52.018;5.576;2022-07-29T09:40:14;5.32;;;2.10;;
67819;SDS011;54618;52.018;5.576;2022-07-29T09:42:45;4.00;;;1.92;;
67819;SDS011;54618;52.018;5.576;2022-07-29T09:45:11;3.17;;;2.10;;
67819;SDS011;54618;52.018;5.576;2022-07-29T09:47:40;3.70;;;2.13;;
67819;SDS011;54618;52.018;5.576;2022-07-29T09:50:07;5.47;;;2.30;;
67819;SDS011;54618;52.018;5.576;2022-07-29T09:52:41;3.38;;;1.92;;
67819;SDS011;54618;52.018;5.576;2022-07-29T09:55:13;4.05;;;1.75;;
67819;SDS011;54618;52.018;5.576;2022-07-29T09:57:39;3.78;;;2.03;;
67819;SDS011;54618;52.018;5.576;2022-07-29T10:02:35;6.15;;;1.90;;
67819;SDS011;54618;52.018;5.576;2022-07-29T10:05:03;4.03;;;2.03;;
67819;SDS011;54618;52.018;5.576;2022-07-29T10:07:44;2.75;;;1.60;;
67819;SDS011;54618;52.018;5.576;2022-07-29T10:10:17;4.68;;;1.80;;
67819;SDS011;54618;52.018;5.576;2022-07-29T10:12:48;3.97;;;1.70;;
67819;SDS011;54618;52.018;5.576;2022-07-29T10:15:25;2.80;;;1.73;;
67819;SDS011;54618;52.018;5.576;2022-07-29T10:17:52;4.22;;;1.77;;
67819;SDS011;54618;52.018;5.576;2022-07-29T10:20:20;3.75;;;1.73;;
67819;SDS011;54618;52.018;5.576;2022-07-29T10:22:47;3.50;;;1.70;;
67819;SDS011;54618;52.018;5.576;2022-07-29T10:25:13;4.45;;;1.80;;
67819;SDS011;54618;52.018;5.576;2022-07-29T10:27:40;3.95;;;1.85;;
67819;SDS011;54618;52.018;5.576;2022-07-29T10:30:07;4.20;;;2.00;;
67819;SDS011;54618;52.018;5.576;2022-07-29T10:44:01;4.43;;;1.90;;
67819;SDS011;54618;52.018;5.576;2022-07-29T10:46:27;5.05;;;1.80;;
67819;SDS011;54618;52.018;5.576;2022-07-29T10:49:13;3.17;;;1.80;;
67819;SDS011;54618;52.018;5.576;2022-07-29T10:52:04;3.70;;;1.70;;
67819;SDS011;54618;52.018;5.576;2022-07-29T11:05:08;1.70;;;1.35;;
67819;SDS011;54618;52.018;5.576;2022-07-29T11:07:38;3.65;;;1.70;;
67819;SDS011;54618;52.018;5.576;2022-07-29T11:10:24;7.45;;;1.90;;
67819;SDS011;54618;52.018;5.576;2022-07-29T11:12:50;2.95;;;1.40;;
67819;SDS011;54618;52.018;5.576;2022-07-29T11:15:17;2.85;;;1.60;;
67819;SDS011;54618;52.018;5.576;2022-07-29T11:23:25;3.60;;;1.55;;
67819;SDS011;54618;52.018;5.576;2022-07-29T11:28:39;2.85;;;1.65;;
67819;SDS011;54618;52.018;5.576;2022-07-29T11:31:07;4.25;;;1.60;;
67819;SDS011;54618;52.018;5.576;2022-07-29T11:33:35;4.60;;;1.30;;
67819;SDS011;54618;52.018;5.576;2022-07-29T11:36:11;2.88;;;1.40;;
67819;SDS011;54618;52.018;5.576;2022-07-29T11:38:38;3.40;;;1.60;;
67819;SDS011;54618;52.018;5.576;2022-07-29T11:51:38;2.15;;;1.50;;
67819;SDS011;54618;52.018;5.576;2022-07-29T11:54:04;2.47;;;1.35;;
67819;SDS011;54618;52.018;5.576;2022-07-29T11:56:33;3.10;;;1.60;;
67819;SDS011;54618;52.018;5.576;2022-07-29T11:59:06;3.33;;;1.70;;
67819;SDS011;54618;52.018;5.576;2022-07-29T12:01:34;3.20;;;1.50;;
67819;SDS011;54618;52.018;5.576;2022-07-29T12:04:06;2.97;;;1.50;;
67819;SDS011;54618;52.018;5.576;2022-07-29T12:06:34;2.67;;;1.48;;
67819;SDS011;54618;52.018;5.576;2022-07-29T12:09:06;2.72;;;1.50;;
67819;SDS011;54618;52.018;5.576;2022-07-29T12:11:32;4.80;;;1.50;;
67819;SDS011;54618;52.018;5.576;2022-07-29T12:13:58;2.75;;;1.50;;
67819;SDS011;54618;52.018;5.576;2022-07-29T12:16:34;3.22;;;1.50;;
67819;SDS011;54618;52.018;5.576;2022-07-29T12:19:01;3.97;;;1.77;;
67819;SDS011;54618;52.018;5.576;2022-07-29T12:21:47;3.35;;;1.58;;
67819;SDS011;54618;52.018;5.576;2022-07-29T12:24:14;2.35;;;1.48;;
67819;SDS011;54618;52.018;5.576;2022-07-29T12:26:50;2.88;;;1.45;;
67819;SDS011;54618;52.018;5.576;2022-07-29T12:29:18;3.00;;;1.60;;
67819;SDS011;54618;52.018;5.576;2022-07-29T12:31:43;3.47;;;1.35;;
67819;SDS011;54618;52.018;5.576;2022-07-29T12:34:11;3.58;;;1.70;;
67819;SDS011;54618;52.018;5.576;2022-07-29T12:36:38;4.43;;;1.42;;
67819;SDS011;54618;52.018;5.576;2022-07-29T12:39:05;4.22;;;1.40;;
67819;SDS011;54618;52.018;5.576;2022-07-29T12:41:31;2.45;;;1.40;;
67819;SDS011;54618;52.018;5.576;2022-07-29T12:43:57;3.85;;;1.52;;
67819;SDS011;54618;52.018;5.576;2022-07-29T12:46:22;3.72;;;1.73;;
67819;SDS011;54618;52.018;5.576;2022-07-29T12:48:52;3.17;;;1.60;;
67819;SDS011;54618;52.018;5.576;2022-07-29T12:51:27;3.03;;;1.60;;
67819;SDS011;54618;52.018;5.576;2022-07-29T12:54:03;2.90;;;1.70;;
67819;SDS011;54618;52.018;5.576;2022-07-29T12:56:40;3.20;;;1.70;;
67819;SDS011;54618;52.018;5.576;2022-07-29T12:59:11;2.53;;;1.60;;
67819;SDS011;54618;52.018;5.576;2022-07-29T13:01:41;2.60;;;1.48;;
67819;SDS011;54618;52.018;5.576;2022-07-29T13:04:07;3.20;;;1.40;;
67819;SDS011;54618;52.018;5.576;2022-07-29T13:06:33;3.15;;;1.52;;
67819;SDS011;54618;52.018;5.576;2022-07-29T13:11:38;3.35;;;1.60;;
67819;SDS011;54618;52.018;5.576;2022-07-29T13:14:13;2.92;;;1.70;;
67819;SDS011;54618;52.018;5.576;2022-07-29T13:17:00;2.33;;;1.40;;
67819;SDS011;54618;52.018;5.576;2022-07-29T13:19:34;3.20;;;1.60;;
67819;SDS011;54618;52.018;5.576;2022-07-29T13:22:01;3.42;;;1.45;;
67819;SDS011;54618;52.018;5.576;2022-07-29T13:24:27;4.28;;;1.90;;
67819;SDS011;54618;52.018;5.576;2022-07-29T13:26:53;4.10;;;1.80;;
67819;SDS011;54618;52.018;5.576;2022-07-29T13:29:18;2.55;;;1.65;;
67819;SDS011;54618;52.018;5.576;2022-07-29T13:31:44;3.00;;;1.80;;
67819;SDS011;54618;52.018;5.576;2022-07-29T13:34:10;3.28;;;1.77;;
67819;SDS011;54618;52.018;5.576;2022-07-29T13:36:35;2.53;;;1.58;;
67819;SDS011;54618;52.018;5.576;2022-07-29T13:39:02;3.42;;;1.80;;
67819;SDS011;54618;52.018;5.576;2022-07-29T13:41:28;3.38;;;1.70;;
67819;SDS011;54618;52.018;5.576;2022-07-29T13:43:53;3.47;;;1.60;;
67819;SDS011;54618;52.018;5.576;2022-07-29T13:46:19;2.30;;;1.50;;
67819;SDS011;54618;52.018;5.576;2022-07-29T13:48:45;3.05;;;1.67;;
67819;SDS011;54618;52.018;5.576;2022-07-29T13:51:10;3.55;;;1.80;;
67819;SDS011;54618;52.018;5.576;2022-07-29T13:53:36;2.80;;;1.90;;
67819;SDS011;54618;52.018;5.576;2022-07-29T13:56:01;3.03;;;1.80;;
67819;SDS011;54618;52.018;5.576;2022-07-29T13:58:27;4.32;;;1.98;;
67819;SDS011;54618;52.018;5.576;2022-07-29T14:00:53;5.43;;;1.95;;
67819;SDS011;54618;52.018;5.576;2022-07-29T14:03:18;5.68;;;2.38;;
67819;SDS011;54618;52.018;5.576;2022-07-29T14:05:44;2.88;;;1.85;;
67819;SDS011;54618;52.018;5.576;2022-07-29T14:08:09;5.43;;;1.83;;
67819;SDS011;54618;52.018;5.576;2022-07-29T14:10:35;3.42;;;1.60;;
67819;SDS011;54618;52.018;5.576;2022-07-29T14:13:01;4.13;;;1.80;;
67819;SDS011;54618;52.018;5.576;2022-07-29T14:15:27;6.05;;;1.75;;
67819;SDS011;54618;52.018;5.576;2022-07-29T14:17:52;3.85;;;1.70;;
67819;SDS011;54618;52.018;5.576;2022-07-29T14:20:18;2.03;;;1.52;;
67819;SDS011;54618;52.018;5.576;2022-07-29T14:22:44;3.35;;;1.60;;
67819;SDS011;54618;52.018;5.576;2022-07-29T14:25:09;4.25;;;1.90;;
67819;SDS011;54618;52.018;5.576;2022-07-29T14:27:35;2.47;;;1.40;;
67819;SDS011;54618;52.018;5.576;2022-07-29T14:30:01;4.75;;;1.70;;
67819;SDS011;54618;52.018;5.576;2022-07-29T14:32:27;4.05;;;1.80;;
67819;SDS011;54618;52.018;5.576;2022-07-29T14:34:54;7.28;;;2.00;;
67819;SDS011;54618;52.018;5.576;2022-07-29T14:37:20;3.55;;;1.83;;
67819;SDS011;54618;52.018;5.576;2022-07-29T14:39:45;2.75;;;1.65;;
67819;SDS011;54618;52.018;5.576;2022-07-29T14:42:11;2.95;;;1.65;;
67819;SDS011;54618;52.018;5.576;2022-07-29T14:44:37;3.80;;;1.70;;
67819;SDS011;54618;52.018;5.576;2022-07-29T14:47:03;6.25;;;1.73;;
67819;SDS011;54618;52.018;5.576;2022-07-29T14:49:29;3.30;;;1.80;;
67819;SDS011;54618;52.018;5.576;2022-07-29T14:51:55;4.78;;;1.90;;
67819;SDS011;54618;52.018;5.576;2022-07-29T14:54:20;2.40;;;1.65;;
67819;SDS011;54618;52.018;5.576;2022-07-29T14:56:46;2.72;;;1.50;;
67819;SDS011;54618;52.018;5.576;2022-07-29T14:59:14;4.22;;;1.70;;
67819;SDS011;54618;52.018;5.576;2022-07-29T15:01:39;4.25;;;2.00;;
67819;SDS011;54618;52.018;5.576;2022-07-29T15:04:05;2.75;;;1.70;;
67819;SDS011;54618;52.018;5.576;2022-07-29T15:06:30;3.78;;;1.80;;
67819;SDS011;54618;52.018;5.576;2022-07-29T15:08:57;4.05;;;1.80;;
67819;SDS011;54618;52.018;5.576;2022-07-29T15:11:22;2.90;;;1.70;;
67819;SDS011;54618;52.018;5.576;2022-07-29T15:13:48;3.60;;;1.90;;
67819;SDS011;54618;52.018;5.576;2022-07-29T15:16:13;3.22;;;1.50;;
67819;SDS011;54618;52.018;5.576;2022-07-29T15:18:39;3.47;;;1.80;;
67819;SDS011;54618;52.018;5.576;2022-07-29T15:21:05;4.68;;;1.80;;
67819;SDS011;54618;52.018;5.576;2022-07-29T15:23:32;2.70;;;1.77;;
67819;SDS011;54618;52.018;5.576;2022-07-29T15:26:00;4.60;;;2.10;;
67819;SDS011;54618;52.018;5.576;2022-07-29T15:28:26;2.88;;;1.63;;
67819;SDS011;54618;52.018;5.576;2022-07-29T15:30:52;2.72;;;1.58;;
67819;SDS011;54618;52.018;5.576;2022-07-29T15:33:17;3.22;;;1.80;;
67819;SDS011;54618;52.018;5.576;2022-07-29T15:35:43;4.40;;;1.80;;
67819;SDS011;54618;52.018;5.576;2022-07-29T15:38:08;3.03;;;1.73;;
67819;SDS011;54618;52.018;5.576;2022-07-29T15:40:37;4.18;;;1.88;;
67819;SDS011;54618;52.018;5.576;2022-07-29T15:43:04;3.38;;;1.80;;
67819;SDS011;54618;52.018;5.576;2022-07-29T15:45:34;3.83;;;1.98;;
67819;SDS011;54618;52.018;5.576;2022-07-29T15:48:05;4.22;;;1.90;;
67819;SDS011;54618;52.018;5.576;2022-07-29T15:50:31;2.97;;;1.70;;
67819;SDS011;54618;52.018;5.576;2022-07-29T15:52:57;3.55;;;1.80;;
67819;SDS011;54618;52.018;5.576;2022-07-29T15:55:23;4.70;;;2.00;;
67819;SDS011;54618;52.018;5.576;2022-07-29T15:57:48;3.92;;;1.90;;
67819;SDS011;54618;52.018;5.576;2022-07-29T16:00:15;3.65;;;1.77;;